Time,TemperatureF,DewpointF,PressureIn,WindDirection,WindDirectionDegrees,WindSpeedMPH,WindSpeedGustMPH,Humidity,HourlyPrecipIn,Conditions,Clouds,dailyrainin,SoftwareType,DateUTC
2013-03-06 00:01:00,45.5,26.4,30.30,NNW,338,3.5,0.0,47,0.00,CLR,FEW,0.00,WeatherDisplay:10.37,2013-03-06 06:01:00,
2013-03-06 00:06:00,45.1,23.9,30.30,NNW,338,0.0,0.0,43,0.00,CLR,FEW,0.00,WeatherDisplay:10.37,2013-03-06 06:06:00,
2013-03-06 00:11:00,44.6,22.9,30.30,NNW,338,1.2,0.0,42,0.00,CLR,FEW,0.00,WeatherDisplay:10.37,2013-03-06 06:11:00,
2013-03-06 00:16:00,44.1,24.6,30.30,North,0,2.3,0.0,46,0.00,CLR,FEW,0.00,WeatherDisplay:10.37,2013-03-06 06:16:00,
2013-03-06 00:21:00,43.9,23.4,30.30,North,0,1.2,0.0,44,0.00,CLR,FEW,0.00,WeatherDisplay:10.37,2013-03-06 06:21:00,
2013-03-06 00:26:00,43.5,23.0,30.30,North,0,1.2,0.0,44,0.00,CLR,FEW,0.00,WeatherDisplay:10.37,2013-03-06 06:26:00,
2013-03-06 00:31:00,43.2,22.1,30.29,North,0,0.0,0.0,43,0.00,CLR,FEW,0.00,WeatherDisplay:10.37,2013-03-06 06:31:00,
2013-03-06 00:36:00,42.6,22.7,30.30,North,0,0.0,0.0,45,0.00,CLR,FEW,0.00,WeatherDisplay:10.37,2013-03-06 06:36:00,
2013-03-06 00:41:00,42.3,22.9,30.30,NW,315,2.3,2.3,46,0.00,CLR,FEW,0.00,WeatherDisplay:10.37,2013-03-06 06:41:00,
2013-03-06 00:46:00,42.3,24.4,30.30,North,0,2.3,2.3,49,0.00,CLR,FEW,0.00,WeatherDisplay:10.37,2013-03-06 06:46:00,
2013-03-06 00:51:00,42.4,23.1,30.30,North,0,1.2,0.0,46,0.00,CLR,FEW,0.00,WeatherDisplay:10.37,2013-03-06 06:51:00,
2013-03-06 00:56:00,42.3,21.9,30.30,North,0,0.0,0.0,44,0.00,CLR,FEW,0.00,WeatherDisplay:10.37,2013-03-06 06:56:00,
2013-03-06 01:01:00,41.9,22.1,30.30,North,0,0.0,0.0,45,0.00,CLR,FEW,0.00,WeatherDisplay:10.37,2013-03-06 07:01:00,
2013-03-06 01:06:00,41.5,23.3,30.30,North,0,0.0,0.0,48,0.00,CLR,FEW,0.00,WeatherDisplay:10.37,2013-03-06 07:06:00,
2013-03-06 01:11:00,41.4,25.5,30.30,North,0,2.3,2.3,53,0.00,CLR,FEW,0.00,WeatherDisplay:10.37,2013-03-06 07:11:00,
2013-03-06 01:16:00,41.7,24.4,30.30,NW,315,2.3,2.3,50,0.00,CLR,FEW,0.00,WeatherDisplay:10.37,2013-03-06 07:16:00,
2013-03-06 01:21:00,41.9,24.1,30.30,West,270,2.3,2.3,49,0.00,CLR,FEW,0.00,WeatherDisplay:10.37,2013-03-06 07:21:00,
2013-03-06 01:26:00,42.1,24.8,30.30,NW,315,2.3,0.0,50,0.00,CLR,FEW,0.00,WeatherDisplay:10.37,2013-03-06 07:26:00,
2013-03-06 01:31:00,42.3,25.9,30.30,NW,315,2.3,2.3,52,0.00,CLR,FEW,0.00,WeatherDisplay:10.37,2013-03-06 07:31:00,
2013-03-06 01:36:00,42.6,27.1,30.30,North,0,2.3,2.3,54,0.00,CLR,FEW,0.00,WeatherDisplay:10.37,2013-03-06 07:36:00,
2013-03-06 01:41:00,42.4,25.6,30.30,West,270,3.5,0.0,51,0.00,CLR,FEW,0.00,WeatherDisplay:10.37,2013-03-06 07:41:00,
2013-03-06 01:46:00,42.3,25.4,30.30,West,270,3.5,3.5,51,0.00,CLR,FEW,0.00,WeatherDisplay:10.37,2013-03-06 07:46:00,
2013-03-06 01:51:00,41.9,25.5,30.30,West,270,3.5,3.5,52,0.00,CLR,FEW,0.00,WeatherDisplay:10.37,2013-03-06 07:51:00,
2013-03-06 01:56:00,41.7,25.4,30.30,NNW,338,2.3,0.0,52,0.00,CLR,FEW,0.00,WeatherDisplay:10.37,2013-03-06 07:56:00,
2013-03-06 02:01:00,41.2,24.9,30.30,NNW,338,1.2,0.0,52,0.00,CLR,FEW,0.00,WeatherDisplay:10.37,2013-03-06 08:01:00,
2013-03-06 02:06:00,40.5,24.2,30.30,NNW,338,0.0,0.0,52,0.00,CLR,FEW,0.00,WeatherDisplay:10.37,2013-03-06 08:06:00,
2013-03-06 02:11:00,40.6,26.6,30.30,NW,315,3.5,3.5,57,0.00,CLR,FEW,0.00,WeatherDisplay:10.37,2013-03-06 08:11:00,
2013-03-06 02:16:00,41.0,26.1,30.30,West,270,1.2,0.0,55,0.00,CLR,FEW,0.00,WeatherDisplay:10.37,2013-03-06 08:16:00,
2013-03-06 02:21:00,41.2,26.2,30.30,NNW,338,2.3,2.3,55,0.00,CLR,FEW,0.00,WeatherDisplay:10.37,2013-03-06 08:21:00,
2013-03-06 02:26:00,41.2,26.7,30.30,NW,315,2.3,2.3,56,0.00,CLR,FEW,0.00,WeatherDisplay:10.37,2013-03-06 08:26:00,
2013-03-06 02:31:00,41.2,27.5,30.30,North,0,1.6,1.6,58,0.00,CLR,FEW,0.00,WeatherDisplay:10.37,2013-03-06 08:31:00,
2013-03-06 02:36:00,40.8,26.7,30.30,North,0,1.2,0.0,57,0.00,CLR,FEW,0.00,WeatherDisplay:10.37,2013-03-06 08:36:00,
2013-03-06 02:41:00,40.3,25.8,30.30,North,0,1.2,0.0,56,0.00,CLR,FEW,0.00,WeatherDisplay:10.37,2013-03-06 08:41:00,
2013-03-06 02:46:00,39.4,25.4,30.30,North,0,1.2,0.0,57,0.00,CLR,FEW,0.00,WeatherDisplay:10.37,2013-03-06 08:46:00,
2013-03-06 02:51:00,39.7,24.9,30.30,West,270,3.5,3.5,55,0.00,CLR,FEW,0.00,WeatherDisplay:10.37,2013-03-06 08:51:00,
2013-03-06 02:56:00,40.6,26.6,30.29,West,270,3.5,3.5,57,0.00,CLR,FEW,0.00,WeatherDisplay:10.37,2013-03-06 08:56:00,
2013-03-06 03:01:00,41.2,24.9,30.30,WSW,248,3.5,3.5,52,0.00,CLR,FEW,0.00,WeatherDisplay:10.37,2013-03-06 09:01:00,
2013-03-06 03:06:00,41.5,25.2,30.30,SW,225,3.5,3.5,52,0.00,CLR,FEW,0.00,WeatherDisplay:10.37,2013-03-06 09:06:00,
2013-03-06 03:11:00,41.5,24.3,30.29,West,270,4.6,4.6,50,0.00,CLR,FEW,0.00,WeatherDisplay:10.37,2013-03-06 09:11:00,
2013-03-06 03:16:00,41.5,26.1,30.29,SW,225,3.5,3.5,54,0.00,CLR,FEW,0.00,WeatherDisplay:10.37,2013-03-06 09:16:00,
2013-03-06 03:21:00,41.2,23.9,30.29,SW,225,3.5,3.5,50,0.00,CLR,FEW,0.00,WeatherDisplay:10.37,2013-03-06 09:21:00,
2013-03-06 03:26:00,40.8,24.5,30.29,SE,135,1.2,1.2,52,0.00,CLR,FEW,0.00,WeatherDisplay:10.37,2013-03-06 09:26:00,
2013-03-06 03:31:00,39.4,23.7,30.29,SE,135,1.6,1.6,53,0.00,CLR,FEW,0.00,WeatherDisplay:10.37,2013-03-06 09:31:00,
2013-03-06 03:36:00,38.1,22.9,30.29,SE,135,1.2,0.0,54,0.00,CLR,FEW,0.00,WeatherDisplay:10.37,2013-03-06 09:36:00,
2013-03-06 03:41:00,37.0,22.8,30.29,SE,135,0.0,0.0,56,0.00,CLR,FEW,0.00,WeatherDisplay:10.37,2013-03-06 09:41:00,
2013-03-06 03:46:00,36.5,22.7,30.29,SE,135,0.0,0.0,57,0.00,CLR,FEW,0.00,WeatherDisplay:10.37,2013-03-06 09:46:00,
2013-03-06 03:51:00,36.0,23.0,30.29,SE,135,0.0,0.0,59,0.00,CLR,FEW,0.00,WeatherDisplay:10.37,2013-03-06 09:51:00,
2013-03-06 03:56:00,35.6,23.1,30.29,SE,135,1.2,0.0,60,0.00,CLR,FEW,0.00,WeatherDisplay:10.37,2013-03-06 09:56:00,
2013-03-06 04:22:00,33.8,23.6,30.30,SE,135,2.3,0.0,66,0.00,CLR,FEW,0.00,WeatherDisplay:10.37,2013-03-06 10:22:00,
2013-03-06 04:27:00,33.8,24.0,30.30,SE,135,1.2,0.0,67,0.00,CLR,FEW,0.00,WeatherDisplay:10.37,2013-03-06 10:27:00,
2013-03-06 04:32:00,33.8,24.0,30.30,SE,135,1.2,1.2,67,0.00,CLR,FEW,0.00,WeatherDisplay:10.37,2013-03-06 10:32:00,
2013-03-06 04:37:00,33.6,24.2,30.31,West,270,1.6,0.0,68,0.00,CLR,FEW,0.00,WeatherDisplay:10.37,2013-03-06 10:37:00,
2013-03-06 04:42:00,33.8,24.7,30.30,East,90,1.2,0.0,69,0.00,CLR,FEW,0.00,WeatherDisplay:10.37,2013-03-06 10:42:00,
2013-03-06 04:47:00,34.0,24.9,30.30,East,90,1.6,0.0,69,0.00,CLR,FEW,0.00,WeatherDisplay:10.37,2013-03-06 10:47:00,
2013-03-06 04:52:00,35.4,26.3,30.31,West,270,2.3,2.3,69,0.00,CLR,FEW,0.00,WeatherDisplay:10.37,2013-03-06 10:52:00,
2013-03-06 04:57:00,36.3,26.0,30.31,West,270,1.2,0.0,66,0.00,CLR,FEW,0.00,WeatherDisplay:10.37,2013-03-06 10:57:00,
2013-03-06 05:02:00,36.3,25.7,30.31,West,270,0.0,0.0,65,0.00,CLR,FEW,0.00,WeatherDisplay:10.37,2013-03-06 11:02:00,
2013-03-06 05:07:00,35.8,24.4,30.32,West,270,1.2,0.0,63,0.00,CLR,FEW,0.00,WeatherDisplay:10.37,2013-03-06 11:07:00,
2013-03-06 05:12:00,34.9,23.9,30.32,West,270,1.2,1.2,64,0.00,CLR,FEW,0.00,WeatherDisplay:10.37,2013-03-06 11:12:00,
2013-03-06 05:17:00,34.0,23.4,30.32,West,270,1.6,1.6,65,0.00,CLR,FEW,0.00,WeatherDisplay:10.37,2013-03-06 11:17:00,
2013-03-06 05:22:00,33.3,23.1,30.31,West,270,0.0,0.0,66,0.00,CLR,FEW,0.00,WeatherDisplay:10.37,2013-03-06 11:22:00,
2013-03-06 05:27:00,33.1,23.3,30.31,West,270,0.0,0.0,67,0.00,CLR,FEW,0.00,WeatherDisplay:10.37,2013-03-06 11:27:00,
2013-03-06 05:33:00,32.7,23.3,30.32,ESE,112,1.6,1.6,68,0.00,CLR,FEW,0.00,WeatherDisplay:10.37,2013-03-06 11:33:00,
2013-03-06 05:38:00,32.5,23.5,30.32,SE,135,1.2,1.2,69,0.00,CLR,FEW,0.00,WeatherDisplay:10.37,2013-03-06 11:38:00,
2013-03-06 05:43:00,32.4,23.3,30.31,SE,135,0.0,0.0,69,0.00,CLR,FEW,0.00,WeatherDisplay:10.37,2013-03-06 11:43:00,
2013-03-06 05:48:00,32.4,23.7,30.32,SE,135,0.0,0.0,70,0.00,CLR,FEW,0.00,WeatherDisplay:10.37,2013-03-06 11:48:00,
2013-03-06 05:53:00,32.4,24.0,30.32,SE,135,0.0,0.0,71,0.00,CLR,FEW,0.00,WeatherDisplay:10.37,2013-03-06 11:53:00,
2013-03-06 05:58:00,32.5,24.2,30.32,SE,135,0.0,0.0,71,0.00,CLR,FEW,0.00,WeatherDisplay:10.37,2013-03-06 11:58:00,
2013-03-06 06:03:00,32.5,24.5,30.32,SE,135,1.2,0.0,72,0.00,CLR,FEW,0.00,WeatherDisplay:10.37,2013-03-06 12:03:00,
2013-03-06 06:08:00,32.4,24.3,30.32,SE,135,0.0,0.0,72,0.00,CLR,FEW,0.00,WeatherDisplay:10.37,2013-03-06 12:08:00,
2013-03-06 06:13:00,32.4,24.3,30.32,SE,135,0.0,0.0,72,0.00,CLR,FEW,0.00,WeatherDisplay:10.37,2013-03-06 12:13:00,
2013-03-06 06:18:00,32.2,24.2,30.33,SE,135,1.6,0.0,72,0.00,CLR,FEW,0.00,WeatherDisplay:10.37,2013-03-06 12:18:00,
2013-03-06 06:23:00,32.0,24.6,30.33,SE,135,1.2,0.0,74,0.00,CLR,FEW,0.00,WeatherDisplay:10.37,2013-03-06 12:23:00,
2013-03-06 06:29:00,32.2,25.1,30.33,SE,135,0.0,0.0,75,0.00,CLR,FEW,0.00,WeatherDisplay:10.37,2013-03-06 12:29:00,
2013-03-06 06:34:00,32.2,25.1,30.33,SW,225,2.3,0.0,75,0.00,CLR,FEW,0.00,WeatherDisplay:10.37,2013-03-06 12:34:00,
2013-03-06 06:39:00,32.9,26.5,30.33,SW,225,3.5,3.5,77,0.00,CLR,FEW,0.00,WeatherDisplay:10.37,2013-03-06 12:39:00,
2013-03-06 06:45:00,34.3,25.9,30.33,West,270,3.5,3.5,71,0.00,CLR,FEW,0.00,WeatherDisplay:10.37,2013-03-06 12:45:00,
2013-03-06 06:50:00,35.1,26.6,30.33,SE,135,3.5,0.0,71,0.00,CLR,FEW,0.00,WeatherDisplay:10.37,2013-03-06 12:50:00,
2013-03-06 06:55:00,35.1,26.3,30.34,SE,135,1.2,0.0,70,0.00,CLR,FEW,0.00,WeatherDisplay:10.37,2013-03-06 12:55:00,
2013-03-06 07:00:00,34.5,25.7,30.33,SE,135,1.2,0.0,70,0.00,CLR,FEW,0.00,WeatherDisplay:10.37,2013-03-06 13:00:00,
2013-03-06 07:05:00,34.0,25.2,30.33,SE,135,1.2,0.0,70,0.00,CLR,FEW,0.00,WeatherDisplay:10.37,2013-03-06 13:05:00,
2013-03-06 07:10:00,33.6,25.2,30.34,SE,135,1.2,0.0,71,0.00,CLR,FEW,0.00,WeatherDisplay:10.37,2013-03-06 13:10:00,
2013-03-06 07:15:00,33.3,25.5,30.35,SE,135,0.0,0.0,73,0.00,CLR,FEW,0.00,WeatherDisplay:10.37,2013-03-06 13:15:00,
2013-03-06 07:20:00,33.6,27.5,30.35,West,270,4.6,4.6,78,0.00,CLR,FEW,0.00,WeatherDisplay:10.37,2013-03-06 13:20:00,
2013-03-06 07:25:00,34.9,28.4,30.36,West,270,5.8,5.8,77,0.00,CLR,FEW,0.00,WeatherDisplay:10.37,2013-03-06 13:25:00,
2013-03-06 07:30:00,35.8,28.3,30.36,West,270,4.6,4.6,74,0.00,CLR,FEW,0.00,WeatherDisplay:10.37,2013-03-06 13:30:00,
2013-03-06 07:35:00,36.5,27.6,30.36,SW,225,4.5,4.5,70,0.00,CLR,FEW,0.00,WeatherDisplay:10.37,2013-03-06 13:35:00,
2013-03-06 07:40:00,37.0,28.2,30.36,NW,315,3.5,3.5,70,0.00,CLR,FEW,0.00,WeatherDisplay:10.37,2013-03-06 13:40:00,
2013-03-06 07:46:00,37.2,28.0,30.36,WNW,286,1.0,0.0,69,0.00,CLR,FEW,0.00,WeatherDisplay:10.37,2013-03-06 13:46:00,
2013-03-06 07:51:00,37.4,27.8,30.36,WNW,288,1.0,0.0,68,0.00,CLR,FEW,0.00,WeatherDisplay:10.37,2013-03-06 13:51:00,
2013-03-06 07:56:00,37.6,28.0,30.36,NNW,334,0.0,0.0,68,0.00,CLR,FEW,0.00,WeatherDisplay:10.37,2013-03-06 13:56:00,
2013-03-06 08:01:00,37.9,28.0,30.36,NW,317,1.0,0.0,67,0.00,CLR,FEW,0.00,WeatherDisplay:10.37,2013-03-06 14:01:00,
2013-03-06 08:06:00,38.1,27.0,30.36,WNW,291,1.0,0.0,64,0.00,CLR,FEW,0.00,WeatherDisplay:10.37,2013-03-06 14:06:00,
2013-03-06 08:11:00,38.3,27.1,30.36,NW,322,0.0,0.0,64,0.00,CLR,FEW,0.00,WeatherDisplay:10.37,2013-03-06 14:11:00,
2013-03-06 08:16:00,38.7,26.8,30.36,North,0,0.0,0.0,62,0.00,CLR,FEW,0.00,WeatherDisplay:10.37,2013-03-06 14:16:00,
2013-03-06 08:21:00,39.0,26.7,30.36,North,0,0.0,0.0,61,0.00,CLR,FEW,0.00,WeatherDisplay:10.37,2013-03-06 14:21:00,
2013-03-06 08:26:00,39.6,27.2,30.37,North,0,1.6,0.0,61,0.00,CLR,FEW,0.00,WeatherDisplay:10.37,2013-03-06 14:26:00,
2013-03-06 08:31:00,39.9,27.5,30.37,North,0,0.0,0.0,61,0.00,CLR,FEW,0.00,WeatherDisplay:10.37,2013-03-06 14:31:00,
2013-03-06 08:36:00,40.3,27.5,30.37,North,0,1.2,0.0,60,0.00,CLR,FEW,0.00,WeatherDisplay:10.37,2013-03-06 14:36:00,
2013-03-06 08:42:00,40.8,28.4,30.37,North,0,1.2,0.0,61,0.00,CLR,FEW,0.00,WeatherDisplay:10.37,2013-03-06 14:42:00,
2013-03-06 08:47:00,41.2,28.7,30.37,North,0,2.3,2.3,61,0.00,CLR,FEW,0.00,WeatherDisplay:10.37,2013-03-06 14:47:00,
2013-03-06 08:52:00,41.4,28.5,30.38,North,0,1.2,0.0,60,0.00,CLR,FEW,0.00,WeatherDisplay:10.37,2013-03-06 14:52:00,
2013-03-06 08:57:00,41.7,28.4,30.38,West,270,1.6,1.6,59,0.00,CLR,FEW,0.00,WeatherDisplay:10.37,2013-03-06 14:57:00,
2013-03-06 09:02:00,42.3,28.9,30.38,West,270,1.2,1.2,59,0.00,CLR,FEW,0.00,WeatherDisplay:10.37,2013-03-06 15:02:00,
2013-03-06 09:07:00,42.8,29.0,30.38,NW,315,2.3,2.3,58,0.00,CLR,FEW,0.00,WeatherDisplay:10.37,2013-03-06 15:07:00,
2013-03-06 09:12:00,43.2,28.1,30.37,NNW,338,1.2,0.0,55,0.00,CLR,FEW,0.00,WeatherDisplay:10.37,2013-03-06 15:12:00,
2013-03-06 09:17:00,43.9,28.3,30.37,North,0,2.3,0.0,54,0.00,CLR,FEW,0.00,WeatherDisplay:10.37,2013-03-06 15:17:00,
2013-03-06 09:22:00,44.4,27.4,30.37,SE,135,3.1,3.1,51,0.00,CLR,FEW,0.00,WeatherDisplay:10.37,2013-03-06 15:22:00,
2013-03-06 09:27:00,45.3,27.3,30.36,East,90,3.5,0.0,49,0.00,CLR,FEW,0.00,WeatherDisplay:10.37,2013-03-06 15:27:00,
2013-03-06 09:32:00,46.2,27.1,30.37,NE,45,1.2,0.0,47,0.00,CLR,FEW,0.00,WeatherDisplay:10.37,2013-03-06 15:32:00,
2013-03-06 09:37:00,47.1,27.4,30.37,SE,135,3.5,0.0,46,0.00,CLR,FEW,0.00,WeatherDisplay:10.37,2013-03-06 15:37:00,
2013-03-06 09:42:00,48.0,27.7,30.37,East,90,1.2,1.2,45,0.00,CLR,FEW,0.00,WeatherDisplay:10.37,2013-03-06 15:42:00,
2013-03-06 09:47:00,48.7,26.1,30.36,North,0,3.8,3.8,41,0.00,CLR,FEW,0.00,WeatherDisplay:10.37,2013-03-06 15:47:00,
2013-03-06 09:52:00,48.9,25.6,30.36,North,0,3.5,0.0,40,0.00,CLR,FEW,0.00,WeatherDisplay:10.37,2013-03-06 15:52:00,
2013-03-06 09:57:00,49.1,23.9,30.38,North,0,4.6,0.0,37,0.00,CLR,FEW,0.00,WeatherDisplay:10.37,2013-03-06 15:57:00,
2013-03-06 10:02:00,49.8,25.2,30.38,ENE,68,3.5,0.0,38,0.00,CLR,FEW,0.00,WeatherDisplay:10.37,2013-03-06 16:02:00,
2013-03-06 10:07:00,50.4,23.0,30.37,North,0,3.8,3.8,34,0.00,CLR,FEW,0.00,WeatherDisplay:10.37,2013-03-06 16:07:00,
2013-03-06 10:12:00,50.7,25.4,30.37,South,180,3.5,0.0,37,0.00,CLR,FEW,0.00,WeatherDisplay:10.37,2013-03-06 16:12:00,
2013-03-06 10:17:00,51.3,20.8,30.36,North,0,4.5,4.5,30,0.00,CLR,FEW,0.00,WeatherDisplay:10.37,2013-03-06 16:17:00,
2013-03-06 10:22:00,51.4,23.3,30.36,SE,135,2.3,2.3,33,0.00,CLR,FEW,0.00,WeatherDisplay:10.37,2013-03-06 16:22:00,
2013-03-06 10:27:00,52.0,23.7,30.36,NW,315,3.5,0.0,33,0.00,CLR,FEW,0.00,WeatherDisplay:10.37,2013-03-06 16:27:00,
2013-03-06 10:32:00,52.7,21.3,30.36,SE,135,3.5,3.5,29,0.00,CLR,FEW,0.00,WeatherDisplay:10.37,2013-03-06 16:32:00,
2013-03-06 10:37:00,53.6,22.1,30.36,SW,225,3.1,3.1,29,0.00,CLR,FEW,0.00,WeatherDisplay:10.37,2013-03-06 16:37:00,
2013-03-06 10:42:00,54.5,23.7,30.36,SW,225,1.2,0.0,30,0.00,CLR,FEW,0.00,WeatherDisplay:10.37,2013-03-06 16:42:00,
2013-03-06 10:47:00,55.4,23.6,30.36,NE,45,1.2,0.0,29,0.00,CLR,FEW,0.00,WeatherDisplay:10.37,2013-03-06 16:47:00,
2013-03-06 10:52:00,55.6,21.2,30.35,SE,135,1.2,1.2,26,0.00,CLR,FEW,0.00,WeatherDisplay:10.37,2013-03-06 16:52:00,
2013-03-06 10:57:00,56.1,19.8,30.36,NNW,338,3.8,3.8,24,0.00,CLR,FEW,0.00,WeatherDisplay:10.37,2013-03-06 16:57:00,
2013-03-06 11:02:00,55.4,18.2,30.35,North,0,2.3,0.0,23,0.00,CLR,FEW,0.00,WeatherDisplay:10.37,2013-03-06 17:02:00,
2013-03-06 11:07:00,56.1,18.8,30.36,NW,315,3.8,3.8,23,0.00,CLR,FEW,0.00,WeatherDisplay:10.37,2013-03-06 17:07:00,
2013-03-06 11:12:00,56.7,23.0,30.35,NE,45,3.5,3.5,27,0.00,CLR,FEW,0.00,WeatherDisplay:10.37,2013-03-06 17:12:00,
2013-03-06 11:17:00,56.1,20.7,30.36,SE,135,2.3,2.3,25,0.00,CLR,FEW,0.00,WeatherDisplay:10.37,2013-03-06 17:17:00,
2013-03-06 11:22:00,57.2,21.6,30.36,East,90,3.5,0.0,25,0.00,CLR,FEW,0.00,WeatherDisplay:10.37,2013-03-06 17:22:00,
2013-03-06 11:28:00,57.9,15.8,30.35,North,0,3.5,3.5,19,0.00,CLR,FEW,0.00,WeatherDisplay:10.37,2013-03-06 17:28:00,
2013-03-06 11:33:00,57.9,18.2,30.34,SE,135,2.3,0.0,21,0.00,CLR,FEW,0.00,WeatherDisplay:10.37,2013-03-06 17:33:00,
2013-03-06 11:38:00,58.5,13.7,30.34,North,0,5.8,5.8,17,0.00,CLR,FEW,0.00,WeatherDisplay:10.37,2013-03-06 17:38:00,
2013-03-06 11:43:00,58.3,12.2,30.33,NW,315,4.6,4.6,16,0.00,CLR,FEW,0.00,WeatherDisplay:10.37,2013-03-06 17:43:00,
2013-03-06 11:48:00,57.7,13.2,30.33,North,0,4.6,4.6,17,0.00,CLR,FEW,0.00,WeatherDisplay:10.37,2013-03-06 17:48:00,
2013-03-06 11:53:00,57.9,13.3,30.33,North,0,3.5,3.5,17,0.00,CLR,FEW,0.00,WeatherDisplay:10.37,2013-03-06 17:53:00,
2013-03-06 11:58:00,57.7,14.5,30.32,North,0,8.1,8.1,18,0.00,CLR,FEW,0.00,WeatherDisplay:10.37,2013-03-06 17:58:00,
2013-03-06 12:03:00,57.7,14.5,30.32,North,0,3.5,3.5,18,0.00,CLR,FEW,0.00,WeatherDisplay:10.37,2013-03-06 18:03:00,
2013-03-06 12:08:00,57.9,15.8,30.32,ESE,112,3.5,3.5,19,0.00,CLR,FEW,0.00,WeatherDisplay:10.37,2013-03-06 18:08:00,
2013-03-06 12:13:00,58.8,17.8,30.31,SE,135,2.3,0.0,20,0.00,CLR,FEW,0.00,WeatherDisplay:10.37,2013-03-06 18:13:00,
2013-03-06 12:18:00,59.2,15.6,30.30,West,270,2.3,2.3,18,0.00,CLR,FEW,0.00,WeatherDisplay:10.37,2013-03-06 18:18:00,
2013-03-06 12:23:00,59.2,15.6,30.31,South,180,3.5,3.5,18,0.00,CLR,FEW,0.00,WeatherDisplay:10.37,2013-03-06 18:23:00,
2013-03-06 12:28:00,59.0,11.3,30.30,North,0,4.6,4.6,15,0.00,CLR,FEW,0.00,WeatherDisplay:10.37,2013-03-06 18:28:00,
2013-03-06 12:33:00,59.2,19.2,30.30,NE,45,2.3,0.0,21,0.00,CLR,FEW,0.00,WeatherDisplay:10.37,2013-03-06 18:33:00,
2013-03-06 12:38:00,59.5,25.5,30.29,West,270,5.8,5.8,27,0.00,CLR,FEW,0.00,WeatherDisplay:10.37,2013-03-06 18:38:00,
2013-03-06 12:43:00,58.8,23.0,30.29,West,270,4.6,4.6,25,0.00,CLR,FEW,0.00,WeatherDisplay:10.37,2013-03-06 18:43:00,
2013-03-06 12:48:00,58.6,26.4,30.29,SW,225,6.9,6.9,29,0.00,CLR,FEW,0.00,WeatherDisplay:10.37,2013-03-06 18:48:00,
2013-03-06 12:53:00,58.1,25.1,30.28,SW,225,8.1,8.1,28,0.00,CLR,FEW,0.00,WeatherDisplay:10.37,2013-03-06 18:53:00,
2013-03-06 12:58:00,58.3,22.6,30.28,West,270,4.6,4.6,25,0.00,CLR,FEW,0.00,WeatherDisplay:10.37,2013-03-06 18:58:00,
2013-03-06 13:03:00,58.6,21.9,30.27,SW,225,5.8,5.8,24,0.00,CLR,FEW,0.00,WeatherDisplay:10.37,2013-03-06 19:03:00,
2013-03-06 13:08:00,59.2,23.3,30.26,North,0,3.8,3.8,25,0.00,CLR,FEW,0.00,WeatherDisplay:10.37,2013-03-06 19:08:00,
2013-03-06 13:13:00,59.4,22.5,30.26,West,270,2.3,0.0,24,0.00,CLR,FEW,0.00,WeatherDisplay:10.37,2013-03-06 19:13:00,
2013-03-06 13:18:00,60.8,21.7,30.25,SE,135,2.3,0.0,22,0.00,CLR,FEW,0.00,WeatherDisplay:10.37,2013-03-06 19:18:00,
2013-03-06 13:23:00,61.7,16.4,30.25,SE,135,4.6,4.6,17,0.00,CLR,FEW,0.00,WeatherDisplay:10.37,2013-03-06 19:23:00,
2013-03-06 13:28:00,61.9,15.1,30.24,North,0,2.3,2.3,16,0.00,CLR,FEW,0.00,WeatherDisplay:10.37,2013-03-06 19:28:00,
2013-03-06 13:33:00,62.2,13.9,30.24,NE,45,3.5,0.0,15,0.00,CLR,FEW,0.00,WeatherDisplay:10.37,2013-03-06 19:33:00,
2013-03-06 13:38:00,62.6,12.7,30.23,NE,45,2.2,2.2,14,0.00,CLR,FEW,0.00,WeatherDisplay:10.37,2013-03-06 19:38:00,
2013-03-06 13:43:00,62.8,15.9,30.22,SE,135,3.5,3.5,16,0.00,CLR,FEW,0.00,WeatherDisplay:10.37,2013-03-06 19:43:00,
2013-03-06 13:48:00,63.5,11.7,30.22,NE,45,3.5,3.5,13,0.00,CLR,FEW,0.00,WeatherDisplay:10.37,2013-03-06 19:48:00,
2013-03-06 13:53:00,63.7,10.0,30.21,East,90,3.5,3.5,12,0.00,CLR,FEW,0.00,WeatherDisplay:10.37,2013-03-06 19:53:00,
2013-03-06 13:58:00,64.0,6.3,30.21,SE,135,3.5,3.5,10,0.00,CLR,FEW,0.00,WeatherDisplay:10.37,2013-03-06 19:58:00,
2013-03-06 14:03:00,64.4,10.6,30.21,NE,45,1.2,1.2,12,0.00,CLR,FEW,0.00,WeatherDisplay:10.37,2013-03-06 20:03:00,
2013-03-06 14:08:00,64.9,7.0,30.21,SE,135,4.6,4.6,10,0.00,CLR,FEW,0.00,WeatherDisplay:10.37,2013-03-06 20:08:00,
2013-03-06 14:13:00,65.1,7.1,30.19,SE,135,3.5,3.5,10,0.00,CLR,FEW,0.00,WeatherDisplay:10.37,2013-03-06 20:13:00,
2013-03-06 14:18:00,65.5,9.5,30.19,ESE,112,2.3,2.3,11,0.00,CLR,FEW,0.00,WeatherDisplay:10.37,2013-03-06 20:18:00,
2013-03-06 14:23:00,65.8,9.8,30.19,SE,135,3.5,3.5,11,0.00,CLR,FEW,0.00,WeatherDisplay:10.37,2013-03-06 20:23:00,
2013-03-06 14:28:00,65.8,7.7,30.19,SE,135,1.6,1.6,10,0.00,CLR,FEW,0.00,WeatherDisplay:10.37,2013-03-06 20:28:00,
2013-03-06 14:33:00,65.8,7.7,30.18,East,90,3.5,3.5,10,0.00,CLR,FEW,0.00,WeatherDisplay:10.37,2013-03-06 20:33:00,
2013-03-06 14:38:00,66.0,7.8,30.17,East,90,3.5,0.0,10,0.00,CLR,FEW,0.00,WeatherDisplay:10.37,2013-03-06 20:38:00,
2013-03-06 14:43:00,66.0,9.9,30.17,SE,135,2.3,0.0,11,0.00,CLR,FEW,0.00,WeatherDisplay:10.37,2013-03-06 20:43:00,
2013-03-06 14:48:00,66.4,8.1,30.17,SSE,158,3.5,3.5,10,0.00,CLR,FEW,0.00,WeatherDisplay:10.37,2013-03-06 20:48:00,
2013-03-06 14:53:00,66.6,8.2,30.17,East,90,3.5,3.5,10,0.00,CLR,FEW,0.00,WeatherDisplay:10.37,2013-03-06 20:53:00,
2013-03-06 14:58:00,66.7,8.3,30.17,SE,135,3.5,3.5,10,0.00,CLR,FEW,0.00,WeatherDisplay:10.37,2013-03-06 20:58:00,
2013-03-06 15:03:00,66.4,8.1,30.17,SE,135,2.3,2.3,10,0.00,CLR,FEW,0.00,WeatherDisplay:10.37,2013-03-06 21:03:00,
2013-03-06 15:08:00,66.2,7.9,30.17,NE,45,2.3,0.0,10,0.00,CLR,FEW,0.00,WeatherDisplay:10.37,2013-03-06 21:08:00,
2013-03-06 15:13:00,65.8,9.8,30.17,North,0,1.2,0.0,11,0.00,CLR,FEW,0.00,WeatherDisplay:10.37,2013-03-06 21:13:00,
2013-03-06 15:18:00,66.0,11.9,30.17,SW,225,1.6,0.0,12,0.00,CLR,FEW,0.00,WeatherDisplay:10.37,2013-03-06 21:18:00,
2013-03-06 15:23:00,66.2,7.9,30.17,NE,45,2.3,2.3,10,0.00,CLR,FEW,0.00,WeatherDisplay:10.37,2013-03-06 21:23:00,
2013-03-06 15:28:00,66.4,10.2,30.17,NE,45,1.2,0.0,11,0.00,CLR,FEW,0.00,WeatherDisplay:10.37,2013-03-06 21:28:00,
2013-03-06 15:33:00,66.4,10.2,30.17,NE,45,1.2,0.0,11,0.00,CLR,FEW,0.00,WeatherDisplay:10.37,2013-03-06 21:33:00,
2013-03-06 15:38:00,66.6,10.3,30.17,East,90,1.2,0.0,11,0.00,CLR,FEW,0.00,WeatherDisplay:10.37,2013-03-06 21:38:00,
2013-03-06 15:43:00,66.6,10.3,30.16,East,90,2.3,2.3,11,0.00,CLR,FEW,0.00,WeatherDisplay:10.37,2013-03-06 21:43:00,
2013-03-06 15:48:00,66.4,10.2,30.16,East,90,3.5,3.5,11,0.00,CLR,FEW,0.00,WeatherDisplay:10.37,2013-03-06 21:48:00,
2013-03-06 15:53:00,66.2,10.1,30.16,South,180,2.3,0.0,11,0.00,CLR,FEW,0.00,WeatherDisplay:10.37,2013-03-06 21:53:00,
2013-03-06 15:58:00,65.8,9.8,30.16,ESE,112,2.3,0.0,11,0.00,CLR,FEW,0.00,WeatherDisplay:10.37,2013-03-06 21:58:00,
2013-03-06 16:03:00,65.7,9.6,30.16,SSE,158,3.1,3.1,11,0.00,CLR,FEW,0.00,WeatherDisplay:10.37,2013-03-06 22:03:00,
2013-03-06 16:08:00,65.5,9.5,30.16,East,90,1.2,0.0,11,0.00,CLR,FEW,0.00,WeatherDisplay:10.37,2013-03-06 22:08:00,
2013-03-06 16:13:00,65.3,9.4,30.15,ESE,112,1.2,0.0,11,0.00,CLR,FEW,0.00,WeatherDisplay:10.37,2013-03-06 22:13:00,
2013-03-06 16:18:00,65.1,9.2,30.16,East,90,2.3,2.3,11,0.00,CLR,FEW,0.00,WeatherDisplay:10.37,2013-03-06 22:18:00,
2013-03-06 16:23:00,64.9,9.1,30.15,ESE,112,2.3,0.0,11,0.00,CLR,FEW,0.00,WeatherDisplay:10.37,2013-03-06 22:23:00,
2013-03-06 16:28:00,64.9,9.1,30.15,SE,135,1.2,0.0,11,0.00,CLR,FEW,0.00,WeatherDisplay:10.37,2013-03-06 22:28:00,
2013-03-06 16:33:00,65.1,7.1,30.15,NE,45,1.2,0.0,10,0.00,CLR,FEW,0.00,WeatherDisplay:10.37,2013-03-06 22:33:00,
2013-03-06 16:38:00,65.1,7.1,30.16,SE,135,1.2,0.0,10,0.00,CLR,FEW,0.00,WeatherDisplay:10.37,2013-03-06 22:38:00,
2013-03-06 16:43:00,65.3,7.2,30.14,East,90,2.3,0.0,10,0.00,CLR,FEW,0.00,WeatherDisplay:10.37,2013-03-06 22:43:00,
2013-03-06 16:48:00,65.5,7.4,30.14,NE,45,3.5,0.0,10,0.00,CLR,FEW,0.00,WeatherDisplay:10.37,2013-03-06 22:48:00,
2013-03-06 16:53:00,65.5,7.4,30.14,East,90,3.5,0.0,10,0.00,CLR,FEW,0.00,WeatherDisplay:10.37,2013-03-06 22:53:00,
2013-03-06 16:58:00,65.5,7.4,30.14,South,180,1.2,0.0,10,0.00,CLR,FEW,0.00,WeatherDisplay:10.37,2013-03-06 22:58:00,
2013-03-06 17:03:00,65.3,7.2,30.14,NE,45,1.6,0.0,10,0.00,CLR,FEW,0.00,WeatherDisplay:10.37,2013-03-06 23:03:00,
2013-03-06 17:08:00,65.3,7.2,30.14,NE,45,1.2,0.0,10,0.00,CLR,FEW,0.00,WeatherDisplay:10.37,2013-03-06 23:08:00,
2013-03-06 17:13:00,65.3,7.2,30.14,SE,135,1.2,0.0,10,0.00,CLR,FEW,0.00,WeatherDisplay:10.37,2013-03-06 23:13:00,
2013-03-06 17:35:00,64.9,7.0,30.14,SE,135,3.5,0.0,10,0.00,CLR,FEW,0.00,WeatherDisplay:10.37,2013-03-06 23:35:00,
2013-03-06 17:40:00,64.6,6.7,30.14,SE,135,2.3,0.0,10,0.00,CLR,FEW,0.00,WeatherDisplay:10.37,2013-03-06 23:40:00,
2013-03-06 17:45:00,64.4,6.6,30.14,SE,135,1.2,0.0,10,0.00,CLR,FEW,0.00,WeatherDisplay:10.37,2013-03-06 23:45:00,
2013-03-06 17:50:00,64.0,6.3,30.14,SE,135,0.0,0.0,10,0.00,CLR,FEW,0.00,WeatherDisplay:10.37,2013-03-06 23:50:00,
2013-03-06 17:55:00,63.9,6.1,30.13,SE,135,2.3,2.3,10,0.00,CLR,FEW,0.00,WeatherDisplay:10.37,2013-03-06 23:55:00,
2013-03-06 18:00:00,63.7,6.0,30.13,SE,135,1.6,0.0,10,0.00,CLR,FEW,0.00,WeatherDisplay:10.37,2013-03-07 00:00:00,
2013-03-06 18:45:00,60.3,9.1,30.14,SE,135,3.8,0.0,13,0.00,CLR,FEW,0.00,WeatherDisplay:10.37,2013-03-07 00:45:00,
2013-03-06 18:50:00,59.9,8.8,30.14,SE,135,1.2,0.0,13,0.00,CLR,FEW,0.00,WeatherDisplay:10.37,2013-03-07 00:50:00,
2013-03-06 18:55:00,59.7,10.4,30.14,SE,135,1.2,0.0,14,0.00,CLR,FEW,0.00,WeatherDisplay:10.37,2013-03-07 00:55:00,
2013-03-06 19:00:00,59.4,10.1,30.14,SE,135,1.2,0.0,14,0.00,CLR,FEW,0.00,WeatherDisplay:10.37,2013-03-07 01:00:00,
2013-03-06 19:05:00,59.0,11.3,30.13,SE,135,1.2,0.0,15,0.00,CLR,FEW,0.00,WeatherDisplay:10.37,2013-03-07 01:05:00,
2013-03-06 19:10:00,58.8,12.7,30.13,SE,135,1.2,0.0,16,0.00,CLR,FEW,0.00,WeatherDisplay:10.37,2013-03-07 01:10:00,
2013-03-06 19:15:00,58.6,12.5,30.12,SE,135,1.2,0.0,16,0.00,CLR,FEW,0.00,WeatherDisplay:10.37,2013-03-07 01:15:00,
2013-03-06 19:20:00,58.3,12.2,30.13,SE,135,2.3,2.3,16,0.00,CLR,FEW,0.00,WeatherDisplay:10.37,2013-03-07 01:20:00,
2013-03-06 19:25:00,58.1,12.1,30.13,SE,135,1.2,0.0,16,0.00,CLR,FEW,0.00,WeatherDisplay:10.37,2013-03-07 01:25:00,
2013-03-06 19:30:00,58.1,12.1,30.13,SE,135,1.2,0.0,16,0.00,CLR,FEW,0.00,WeatherDisplay:10.37,2013-03-07 01:30:00,
2013-03-06 19:35:00,57.9,13.3,30.13,SE,135,1.2,0.0,17,0.00,CLR,FEW,0.00,WeatherDisplay:10.37,2013-03-07 01:35:00,
2013-03-06 19:40:00,57.7,13.2,30.12,SE,135,1.6,0.0,17,0.00,CLR,FEW,0.00,WeatherDisplay:10.37,2013-03-07 01:40:00,
2013-03-06 19:45:00,57.6,13.0,30.12,SE,135,1.2,0.0,17,0.00,CLR,FEW,0.00,WeatherDisplay:10.37,2013-03-07 01:45:00,
2013-03-06 19:50:00,57.4,12.9,30.13,SE,135,1.2,0.0,17,0.00,CLR,FEW,0.00,WeatherDisplay:10.37,2013-03-07 01:50:00,
2013-03-06 19:55:00,57.0,12.6,30.13,SE,135,1.2,0.0,17,0.00,CLR,FEW,0.00,WeatherDisplay:10.37,2013-03-07 01:55:00,
2013-03-06 20:00:00,56.8,13.7,30.13,SE,135,0.0,0.0,18,0.00,CLR,FEW,0.00,WeatherDisplay:10.37,2013-03-07 02:00:00,
2013-03-06 20:05:00,56.7,13.6,30.13,SE,135,0.0,0.0,18,0.00,CLR,FEW,0.00,WeatherDisplay:10.37,2013-03-07 02:05:00,
2013-03-06 20:10:00,56.3,13.3,30.14,SE,135,0.0,0.0,18,0.00,CLR,FEW,0.00,WeatherDisplay:10.37,2013-03-07 02:10:00,
2013-03-06 20:15:00,55.9,14.2,30.14,SE,135,0.0,0.0,19,0.00,CLR,FEW,0.00,WeatherDisplay:10.37,2013-03-07 02:15:00,
2013-03-06 20:20:00,55.6,13.9,30.14,SE,135,0.0,0.0,19,0.00,CLR,FEW,0.00,WeatherDisplay:10.37,2013-03-07 02:20:00,
2013-03-06 20:25:00,55.4,14.9,30.14,SE,135,0.0,0.0,20,0.00,CLR,FEW,0.00,WeatherDisplay:10.37,2013-03-07 02:25:00,
2013-03-06 20:30:00,55.0,15.8,30.14,SE,135,0.0,0.0,21,0.00,CLR,FEW,0.00,WeatherDisplay:10.37,2013-03-07 02:30:00,
2013-03-06 20:35:00,54.9,15.6,30.15,SE,135,0.0,0.0,21,0.00,CLR,FEW,0.00,WeatherDisplay:10.37,2013-03-07 02:35:00,
2013-03-06 20:40:00,54.5,17.4,30.14,SE,135,0.0,0.0,23,0.00,CLR,FEW,0.00,WeatherDisplay:10.37,2013-03-07 02:40:00,
2013-03-06 20:45:00,54.3,16.2,30.14,SE,135,0.0,0.0,22,0.00,CLR,FEW,0.00,WeatherDisplay:10.37,2013-03-07 02:45:00,
2013-03-06 20:50:00,53.8,16.8,30.14,SE,135,0.0,0.0,23,0.00,CLR,FEW,0.00,WeatherDisplay:10.37,2013-03-07 02:50:00,
2013-03-06 20:55:00,53.4,16.5,30.14,SE,135,0.0,0.0,23,0.00,CLR,FEW,0.00,WeatherDisplay:10.37,2013-03-07 02:55:00,
2013-03-06 21:00:00,52.9,18.0,30.15,SE,135,0.0,0.0,25,0.00,CLR,FEW,0.00,WeatherDisplay:10.37,2013-03-07 03:00:00,
2013-03-06 21:05:00,52.5,17.7,30.15,SE,135,0.0,0.0,25,0.00,CLR,FEW,0.00,WeatherDisplay:10.37,2013-03-07 03:05:00,
2013-03-06 21:10:00,52.0,17.2,30.15,SE,135,0.0,0.0,25,0.00,CLR,FEW,0.00,WeatherDisplay:10.37,2013-03-07 03:10:00,
2013-03-06 21:15:00,51.6,16.9,30.15,SE,135,0.0,0.0,25,0.00,CLR,FEW,0.00,WeatherDisplay:10.37,2013-03-07 03:15:00,
2013-03-06 21:20:00,51.3,17.5,30.16,SE,135,0.0,0.0,26,0.00,CLR,FEW,0.00,WeatherDisplay:10.37,2013-03-07 03:20:00,
2013-03-06 21:25:00,51.1,18.2,30.17,SE,135,0.0,0.0,27,0.00,CLR,FEW,0.00,WeatherDisplay:10.37,2013-03-07 03:25:00,
2013-03-06 21:30:00,50.7,17.9,30.17,SE,135,0.0,0.0,27,0.00,CLR,FEW,0.00,WeatherDisplay:10.37,2013-03-07 03:30:00,
2013-03-06 21:35:00,50.5,19.4,30.16,SE,135,0.0,0.0,29,0.00,CLR,FEW,0.00,WeatherDisplay:10.37,2013-03-07 03:35:00,
2013-03-06 21:40:00,50.2,19.9,30.17,SE,135,0.0,0.0,30,0.00,CLR,FEW,0.00,WeatherDisplay:10.37,2013-03-07 03:40:00,
2013-03-06 21:45:00,50.0,19.7,30.17,SE,135,0.0,0.0,30,0.00,CLR,FEW,0.00,WeatherDisplay:10.37,2013-03-07 03:45:00,
2013-03-06 21:50:00,49.8,21.8,30.16,SE,135,1.2,0.0,33,0.00,CLR,FEW,0.00,WeatherDisplay:10.37,2013-03-07 03:50:00,
2013-03-06 21:55:00,49.5,20.8,30.16,SE,135,0.0,0.0,32,0.00,CLR,FEW,0.00,WeatherDisplay:10.37,2013-03-07 03:55:00,
2013-03-06 22:00:00,49.1,20.5,30.16,SE,135,0.0,0.0,32,0.00,CLR,FEW,0.00,WeatherDisplay:10.37,2013-03-07 04:00:00,
2013-03-06 22:05:00,48.7,20.2,30.16,SE,135,0.0,0.0,32,0.00,CLR,FEW,0.00,WeatherDisplay:10.37,2013-03-07 04:05:00,
2013-03-06 22:10:00,48.2,19.7,30.16,SE,135,0.0,0.0,32,0.00,CLR,FEW,0.00,WeatherDisplay:10.37,2013-03-07 04:10:00,
2013-03-06 22:15:00,48.0,19.5,30.16,SE,135,1.2,0.0,32,0.00,CLR,FEW,0.00,WeatherDisplay:10.37,2013-03-07 04:15:00,
2013-03-06 22:20:00,47.5,19.8,30.15,SE,135,0.0,0.0,33,0.00,CLR,FEW,0.00,WeatherDisplay:10.37,2013-03-07 04:20:00,
2013-03-06 22:25:00,47.3,20.3,30.15,SE,135,0.0,0.0,34,0.00,CLR,FEW,0.00,WeatherDisplay:10.37,2013-03-07 04:25:00,
2013-03-06 22:30:00,46.9,20.0,30.15,SE,135,0.0,0.0,34,0.00,CLR,FEW,0.00,WeatherDisplay:10.37,2013-03-07 04:30:00,
2013-03-06 22:35:00,46.8,20.5,30.15,SE,135,0.0,0.0,35,0.00,CLR,FEW,0.00,WeatherDisplay:10.37,2013-03-07 04:35:00,
2013-03-06 22:40:00,46.6,21.7,30.15,SE,135,0.0,0.0,37,0.00,CLR,FEW,0.00,WeatherDisplay:10.37,2013-03-07 04:40:00,
2013-03-06 22:45:00,46.4,22.8,30.15,SE,135,0.0,0.0,39,0.00,CLR,FEW,0.00,WeatherDisplay:10.37,2013-03-07 04:45:00,
2013-03-06 22:50:00,46.2,23.8,30.15,SE,135,0.0,0.0,41,0.00,CLR,FEW,0.00,WeatherDisplay:10.37,2013-03-07 04:50:00,
2013-03-06 22:55:00,46.0,23.0,30.14,SE,135,0.0,0.0,40,0.00,CLR,FEW,0.00,WeatherDisplay:10.37,2013-03-07 04:55:00,
2013-03-06 23:00:00,45.7,23.3,30.14,SE,135,0.0,0.0,41,0.00,CLR,FEW,0.00,WeatherDisplay:10.37,2013-03-07 05:00:00,
2013-03-06 23:04:00,45.5,23.7,30.14,SE,135,0.0,0.0,42,0.00,CLR,FEW,0.00,WeatherDisplay:10.37,2013-03-07 05:04:00,
2013-03-06 23:09:00,45.3,23.5,30.14,SE,135,0.0,0.0,42,0.00,CLR,FEW,0.00,WeatherDisplay:10.37,2013-03-07 05:09:00,
2013-03-06 23:14:00,45.1,23.4,30.14,SE,135,0.0,0.0,42,0.00,CLR,FEW,0.00,WeatherDisplay:10.37,2013-03-07 05:14:00,
2013-03-06 23:18:00,45.0,23.2,30.14,SE,135,0.0,0.0,42,0.00,CLR,FEW,0.00,WeatherDisplay:10.37,2013-03-07 05:18:00,
2013-03-06 23:23:00,44.8,23.1,30.14,SE,135,0.0,0.0,42,0.00,CLR,FEW,0.00,WeatherDisplay:10.37,2013-03-07 05:23:00,
2013-03-06 23:28:00,44.6,22.9,30.14,SE,135,0.0,0.0,42,0.00,CLR,FEW,0.00,WeatherDisplay:10.37,2013-03-07 05:28:00,
2013-03-06 23:33:00,44.2,23.1,30.14,SE,135,0.0,0.0,43,0.00,CLR,FEW,0.00,WeatherDisplay:10.37,2013-03-07 05:33:00,
2013-03-06 23:38:00,43.9,22.8,30.14,SE,135,0.0,0.0,43,0.00,CLR,FEW,0.00,WeatherDisplay:10.37,2013-03-07 05:38:00,
2013-03-06 23:43:00,43.7,23.2,30.14,SE,135,0.0,0.0,44,0.00,CLR,FEW,0.00,WeatherDisplay:10.37,2013-03-07 05:43:00,
2013-03-06 23:48:00,43.5,23.0,30.14,SE,135,1.2,0.0,44,0.00,CLR,FEW,0.00,WeatherDisplay:10.37,2013-03-07 05:48:00,
2013-03-06 23:53:00,43.3,22.9,30.14,SE,135,0.0,0.0,44,0.00,CLR,FEW,0.00,WeatherDisplay:10.37,2013-03-07 05:53:00,
2013-03-06 23:59:00,43.3,23.4,30.13,SE,135,0.0,0.0,45,0.00,CLR,FEW,0.00,WeatherDisplay:10.37,2013-03-07 05:59:00,